Time;durP1;ratioP1;P1;durP2;ratioP2;P2;SDS_P1;SDS_P2;PMS_P1;PMS_P2;Temp;Humidity;BMP_temperature;BMP_pressure;BME280_temperature;BME280_humidity;BME280_pressure;Samples;Min_cycle;Max_cycle;Signal;HPM_P1;HPM_P2
2022/06/22 00:00:32;;;;;;;6.32;2.50;;;;;;;;;;5060668;28;20143;-89
2022/06/22 00:03:02;;;;;;;7.55;2.53;;;;;;;;;;5059400;28;20055;-89
2022/06/22 00:05:55;;;;;;;5.22;2.70;;;;;;;;;;5062258;28;20518;-90
2022/06/22 00:08:51;;;;;;;5.25;2.40;;;;;;;;;;5064244;28;20139;-90
2022/06/22 00:11:24;;;;;;;5.55;2.50;;;;;;;;;;5062582;28;20583;-91
2022/06/22 00:13:57;;;;;;;5.45;2.55;;;;;;;;;;5075336;28;20041;-91
2022/06/22 00:16:32;;;;;;;5.38;2.72;;;;;;;;;;5056548;28;20044;-91
2022/06/22 00:19:35;;;;;;;7.00;3.20;;;;;;;;;;5065197;28;20033;-91
2022/06/22 00:22:03;;;;;;;4.65;2.53;;;;;;;;;;5078180;28;20565;-86
2022/06/22 00:24:38;;;;;;;4.57;2.28;;;;;;;;;;5090125;28;20044;-87
2022/06/22 00:27:17;;;;;;;4.43;2.60;;;;;;;;;;5061880;28;20399;-89
2022/06/22 00:30:07;;;;;;;6.43;2.65;;;;;;;;;;5061964;28;20051;-89
2022/06/22 00:32:53;;;;;;;4.22;2.55;;;;;;;;;;5062796;28;20041;-89
2022/06/22 00:35:42;;;;;;;5.45;2.40;;;;;;;;;;5043964;28;20040;-89
2022/06/22 00:38:30;;;;;;;4.47;2.97;;;;;;;;;;5059806;28;20048;-87
2022/06/22 00:41:02;;;;;;;4.90;2.40;;;;;;;;;;5062267;28;20556;-86
2022/06/22 00:43:54;;;;;;;5.80;2.67;;;;;;;;;;5062710;28;20050;-89
2022/06/22 00:46:23;;;;;;;4.85;2.67;;;;;;;;;;5060648;28;20587;-89
2022/06/22 00:48:53;;;;;;;4.38;2.50;;;;;;;;;;5060589;28;20040;-89
2022/06/22 00:51:34;;;;;;;5.65;2.70;;;;;;;;;;5059879;28;20131;-89
2022/06/22 00:54:05;;;;;;;4.35;2.80;;;;;;;;;;5060935;28;20133;-89
2022/06/22 00:56:41;;;;;;;5.65;2.60;;;;;;;;;;5061913;28;20048;-89
2022/06/22 00:59:21;;;;;;;4.60;2.60;;;;;;;;;;5062882;28;20555;-90
2022/06/22 01:01:55;;;;;;;6.10;2.67;;;;;;;;;;5048363;28;20049;-86
2022/06/22 01:04:52;;;;;;;3.83;2.53;;;;;;;;;;5065992;28;20310;-86
2022/06/22 01:07:30;;;;;;;5.43;2.60;;;;;;;;;;5066772;28;20056;-87
2022/06/22 01:10:38;;;;;;;5.28;3.03;;;;;;;;;;5064384;28;20041;-87
2022/06/22 01:13:15;;;;;;;4.97;2.85;;;;;;;;;;5066309;28;20122;-87
2022/06/22 01:16:22;;;;;;;4.43;2.90;;;;;;;;;;5064903;28;20329;-87
2022/06/22 01:19:02;;;;;;;4.50;2.88;;;;;;;;;;5080965;28;20123;-88
2022/06/22 01:21:37;;;;;;;3.55;2.60;;;;;;;;;;5077395;28;20234;-87
2022/06/22 01:24:57;;;;;;;5.38;2.75;;;;;;;;;;5065713;28;20037;-88
2022/06/22 01:27:34;;;;;;;5.38;2.67;;;;;;;;;;5063258;28;20040;-88
2022/06/22 01:30:18;;;;;;;6.88;3.13;;;;;;;;;;5063522;28;20126;-88
2022/06/22 01:32:46;;;;;;;7.68;2.60;;;;;;;;;;5064369;28;20045;-88
2022/06/22 01:35:18;;;;;;;4.13;2.70;;;;;;;;;;5056715;28;20049;-88
2022/06/22 01:37:47;;;;;;;4.75;2.58;;;;;;;;;;5064607;28;20126;-87
2022/06/22 01:40:48;;;;;;;5.13;2.53;;;;;;;;;;5064942;28;20406;-86
2022/06/22 01:43:29;;;;;;;4.15;2.50;;;;;;;;;;5063327;28;20473;-86
2022/06/22 01:46:38;;;;;;;5.80;2.75;;;;;;;;;;5064362;28;20037;-87
2022/06/22 01:49:11;;;;;;;5.43;3.15;;;;;;;;;;5062529;28;20045;-87
2022/06/22 01:51:45;;;;;;;5.20;2.80;;;;;;;;;;5062915;28;20040;-87
2022/06/22 01:54:20;;;;;;;5.63;3.00;;;;;;;;;;5060603;28;20066;-87
2022/06/22 01:57:06;;;;;;;4.90;2.72;;;;;;;;;;5059694;28;20047;-87
2022/06/22 01:59:51;;;;;;;4.43;2.80;;;;;;;;;;5060803;28;20040;-87
2022/06/22 02:02:38;;;;;;;5.95;2.78;;;;;;;;;;5062935;28;20040;-86
2022/06/22 02:05:19;;;;;;;6.07;2.75;;;;;;;;;;5063804;28;20051;-86
2022/06/22 02:08:25;;;;;;;3.67;2.42;;;;;;;;;;5078087;28;20044;-86
2022/06/22 02:11:01;;;;;;;4.22;2.42;;;;;;;;;;5063312;28;20037;-86
2022/06/22 02:14:10;;;;;;;5.97;2.83;;;;;;;;;;5061313;28;20110;-86
2022/06/22 02:17:03;;;;;;;4.30;2.60;;;;;;;;;;5060623;28;21976;-86
2022/06/22 02:19:31;;;;;;;4.63;2.65;;;;;;;;;;5064697;28;20041;-85
2022/06/22 02:22:23;;;;;;;5.57;2.72;;;;;;;;;;5063899;28;20740;-87
2022/06/22 02:24:57;;;;;;;4.38;2.60;;;;;;;;;;5062768;28;20044;-86
2022/06/22 02:27:29;;;;;;;4.00;2.60;;;;;;;;;;5062097;28;20040;-86
2022/06/22 02:29:59;;;;;;;4.75;2.80;;;;;;;;;;5061167;28;20043;-86
2022/06/22 02:32:31;;;;;;;3.72;2.47;;;;;;;;;;5061859;28;20063;-86
2022/06/22 02:35:31;;;;;;;4.47;2.63;;;;;;;;;;5063607;28;20555;-88
2022/06/22 02:38:05;;;;;;;5.65;2.75;;;;;;;;;;5064144;28;20114;-88
2022/06/22 02:44:29;;;;;;;3.72;2.28;;;;;;;;;;5076578;28;20048;-88
2022/06/22 02:46:17;;;;;;;6.47;2.72;;;;;;;;;;5061637;28;20044;-89
2022/06/22 02:49:22;;;;;;;4.15;2.78;;;;;;;;;;5062345;28;20039;-87
2022/06/22 02:52:15;;;;;;;5.53;2.83;;;;;;;;;;5063684;28;20040;-89
2022/06/22 02:54:52;;;;;;;4.75;2.63;;;;;;;;;;5079091;28;20857;-88
2022/06/22 02:57:26;;;;;;;4.38;2.70;;;;;;;;;;5064148;28;20048;-89
2022/06/22 02:59:59;;;;;;;4.50;2.60;;;;;;;;;;5072335;28;21292;-89
2022/06/22 03:02:27;;;;;;;6.05;2.90;;;;;;;;;;5064397;28;20040;-88
2022/06/22 03:05:04;;;;;;;6.35;2.95;;;;;;;;;;5062041;28;20082;-89
2022/06/22 03:07:36;;;;;;;6.32;3.22;;;;;;;;;;5063832;28;20885;-90
2022/06/22 03:10:05;;;;;;;7.32;3.30;;;;;;;;;;5049125;28;20045;-91
2022/06/22 03:12:33;;;;;;;6.00;3.00;;;;;;;;;;5095366;28;20044;-86
2022/06/22 03:15:05;;;;;;;6.50;3.00;;;;;;;;;;5062081;28;20042;-87
2022/06/22 03:17:59;;;;;;;5.10;2.92;;;;;;;;;;5081287;28;20040;-86
2022/06/22 03:20:34;;;;;;;4.93;2.88;;;;;;;;;;5092023;28;21301;-86
2022/06/22 03:23:14;;;;;;;4.72;2.70;;;;;;;;;;5062359;28;20562;-86
2022/06/22 03:25:47;;;;;;;5.70;2.60;;;;;;;;;;5061705;28;20127;-86
2022/06/22 03:28:44;;;;;;;4.65;2.63;;;;;;;;;;5058625;28;20024;-85
2022/06/22 03:31:21;;;;;;;5.78;2.90;;;;;;;;;;5061297;28;20448;-85
2022/06/22 03:34:08;;;;;;;5.07;2.75;;;;;;;;;;5094717;28;20513;-87
2022/06/22 03:36:49;;;;;;;6.72;3.53;;;;;;;;;;5063734;28;20036;-88
2022/06/22 03:39:20;;;;;;;5.95;3.50;;;;;;;;;;5061790;28;20387;-87
2022/06/22 03:42:04;;;;;;;4.65;2.60;;;;;;;;;;5060601;28;20043;-87
2022/06/22 03:45:09;;;;;;;5.00;3.10;;;;;;;;;;5080464;28;20459;-89
2022/06/22 03:48:07;;;;;;;5.05;2.83;;;;;;;;;;4952481;28;20508;-89
2022/06/22 03:51:03;;;;;;;5.80;3.08;;;;;;;;;;4983800;28;20124;-89
2022/06/22 03:53:36;;;;;;;5.35;2.90;;;;;;;;;;4981383;28;20051;-89
2022/06/22 03:56:08;;;;;;;5.32;2.90;;;;;;;;;;4967064;28;20046;-91
2022/06/22 03:58:43;;;;;;;5.43;3.35;;;;;;;;;;4968437;28;20116;-91
2022/06/22 04:01:13;;;;;;;5.53;2.83;;;;;;;;;;4979332;28;20404;-93
2022/06/22 04:03:42;;;;;;;5.50;3.00;;;;;;;;;;4986052;28;20149;-93
2022/06/22 04:06:34;;;;;;;4.28;2.60;;;;;;;;;;4970152;28;20077;-93
2022/06/22 04:09:28;;;;;;;5.85;3.13;;;;;;;;;;4966598;28;20049;-88
2022/06/22 04:12:09;;;;;;;5.72;3.28;;;;;;;;;;4967191;28;20042;-88
2022/06/22 04:15:13;;;;;;;6.82;3.20;;;;;;;;;;4980967;28;20500;-86
2022/06/22 04:17:48;;;;;;;6.25;2.97;;;;;;;;;;4965510;28;20509;-86
2022/06/22 04:20:50;;;;;;;5.45;3.05;;;;;;;;;;4981311;28;20085;-85
2022/06/22 04:23:30;;;;;;;7.28;3.33;;;;;;;;;;4992445;28;20083;-86
2022/06/22 04:26:29;;;;;;;6.60;3.08;;;;;;;;;;5062453;28;20521;-86
2022/06/22 04:29:09;;;;;;;8.20;3.70;;;;;;;;;;5063788;28;20045;-86
2022/06/22 04:31:47;;;;;;;6.18;3.88;;;;;;;;;;5060290;28;20037;-86
2022/06/22 04:34:50;;;;;;;7.50;4.18;;;;;;;;;;5058889;28;20577;-86
2022/06/22 04:37:27;;;;;;;6.10;3.83;;;;;;;;;;5067641;28;20041;-84
2022/06/22 04:40:12;;;;;;;7.38;4.45;;;;;;;;;;5088979;28;20064;-82
2022/06/22 04:42:46;;;;;;;8.10;4.38;;;;;;;;;;5072368;28;20112;-83
2022/06/22 04:45:29;;;;;;;5.80;3.75;;;;;;;;;;5067889;28;20045;-83
2022/06/22 04:48:04;;;;;;;6.90;4.25;;;;;;;;;;5068732;28;20041;-84
2022/06/22 04:50:33;;;;;;;7.95;3.90;;;;;;;;;;5065811;28;20417;-84
2022/06/22 04:53:03;;;;;;;8.55;4.28;;;;;;;;;;5061720;28;20094;-84
2022/06/22 04:55:38;;;;;;;8.75;4.40;;;;;;;;;;5067790;28;20045;-83
2022/06/22 04:58:21;;;;;;;9.98;4.65;;;;;;;;;;5069209;28;20055;-83
2022/06/22 05:00:53;;;;;;;7.20;4.32;;;;;;;;;;5065520;28;20098;-83
2022/06/22 05:03:27;;;;;;;8.73;4.38;;;;;;;;;;5068674;28;20045;-84
2022/06/22 05:05:59;;;;;;;13.13;4.75;;;;;;;;;;5066811;28;20044;-82
2022/06/22 05:08:34;;;;;;;9.00;4.50;;;;;;;;;;5066468;28;20055;-83
2022/06/22 05:11:04;;;;;;;7.97;4.60;;;;;;;;;;5063282;28;20040;-82
2022/06/22 05:13:59;;;;;;;12.68;4.97;;;;;;;;;;5067083;28;20044;-83
2022/06/22 05:16:32;;;;;;;9.75;5.10;;;;;;;;;;5062229;28;20263;-82
2022/06/22 05:19:01;;;;;;;10.95;5.57;;;;;;;;;;5065590;28;20071;-83
2022/06/22 05:21:39;;;;;;;12.20;4.50;;;;;;;;;;5077233;28;20048;-83
2022/06/22 05:24:15;;;;;;;12.18;4.95;;;;;;;;;;5063801;28;20047;-83
2022/06/22 05:26:43;;;;;;;9.57;4.75;;;;;;;;;;5069347;28;20051;-83
2022/06/22 05:29:36;;;;;;;8.18;5.03;;;;;;;;;;5064519;28;20440;-83
2022/06/22 05:32:08;;;;;;;13.50;5.57;;;;;;;;;;5071201;28;20045;-83
2022/06/22 05:34:38;;;;;;;6.90;4.53;;;;;;;;;;5064221;28;20064;-83
2022/06/22 05:37:34;;;;;;;7.53;4.70;;;;;;;;;;5067082;28;20028;-83
2022/06/22 05:40:04;;;;;;;8.23;5.15;;;;;;;;;;5070985;28;20040;-82
2022/06/22 05:42:37;;;;;;;7.80;4.60;;;;;;;;;;5064641;28;20535;-82
2022/06/22 05:45:36;;;;;;;12.27;4.50;;;;;;;;;;5064301;28;20037;-81
2022/06/22 05:48:31;;;;;;;7.55;4.38;;;;;;;;;;5065724;28;20044;-82
2022/06/22 05:51:04;;;;;;;9.50;4.38;;;;;;;;;;5068139;28;20044;-82
2022/06/22 05:53:52;;;;;;;9.38;4.43;;;;;;;;;;5078900;28;20104;-82
2022/06/22 05:56:29;;;;;;;7.85;3.75;;;;;;;;;;5094228;28;20048;-81
2022/06/22 05:59:45;;;;;;;10.32;3.97;;;;;;;;;;5080453;28;20055;-81
2022/06/22 06:02:44;;;;;;;10.43;4.57;;;;;;;;;;5079223;28;20036;-81
2022/06/22 06:05:25;;;;;;;7.75;3.58;;;;;;;;;;5080912;28;20028;-81
2022/06/22 06:08:01;;;;;;;10.38;4.55;;;;;;;;;;5079473;28;20128;-82
2022/06/22 06:11:25;;;;;;;12.95;3.53;;;;;;;;;;5079954;28;20040;-82
2022/06/22 06:14:02;;;;;;;10.40;3.60;;;;;;;;;;5081325;28;20044;-82
2022/06/22 06:16:41;;;;;;;10.70;3.40;;;;;;;;;;5079633;28;20101;-81
2022/06/22 06:19:12;;;;;;;11.95;4.15;;;;;;;;;;5081241;28;20044;-81
2022/06/22 06:22:11;;;;;;;8.77;3.50;;;;;;;;;;5079871;28;20028;-81
2022/06/22 06:28:14;;;;;;;13.95;3.85;;;;;;;;;;5080179;28;20082;-81
2022/06/22 06:31:14;;;;;;;8.52;3.38;;;;;;;;;;5075719;28;20045;-80
2022/06/22 06:33:47;;;;;;;8.55;3.33;;;;;;;;;;5095609;28;20173;-81
2022/06/22 06:36:20;;;;;;;10.65;3.60;;;;;;;;;;5065148;28;20045;-81
2022/06/22 06:39:00;;;;;;;10.38;3.92;;;;;;;;;;5097341;28;20044;-81
2022/06/22 06:42:06;;;;;;;6.60;3.28;;;;;;;;;;5063998;28;20037;-82
2022/06/22 06:44:42;;;;;;;7.05;3.40;;;;;;;;;;5072484;28;20046;-83
2022/06/22 06:47:15;;;;;;;7.78;3.17;;;;;;;;;;5098586;28;20037;-83
2022/06/22 06:50:33;;;;;;;9.23;3.17;;;;;;;;;;5067916;28;20040;-83
2022/06/22 06:53:36;;;;;;;8.25;3.58;;;;;;;;;;5068826;28;20650;-83
2022/06/22 06:56:31;;;;;;;9.05;3.28;;;;;;;;;;5069422;28;20044;-83
2022/06/22 06:59:12;;;;;;;6.20;3.22;;;;;;;;;;5066802;28;20415;-83
2022/06/22 07:02:30;;;;;;;7.45;2.88;;;;;;;;;;5078292;28;20098;-83
2022/06/22 07:05:01;;;;;;;11.20;3.40;;;;;;;;;;5064220;28;20044;-83
2022/06/22 07:07:42;;;;;;;7.95;3.65;;;;;;;;;;5068390;28;20040;-83
2022/06/22 07:10:43;;;;;;;12.27;3.67;;;;;;;;;;5070255;28;20178;-83
2022/06/22 07:13:46;;;;;;;11.85;4.03;;;;;;;;;;5070468;28;20028;-83
2022/06/22 07:16:18;;;;;;;8.30;3.75;;;;;;;;;;5064541;28;20391;-83
2022/06/22 07:19:01;;;;;;;13.13;4.40;;;;;;;;;;5065417;28;20848;-83
2022/06/22 07:21:58;;;;;;;12.25;4.07;;;;;;;;;;5068644;28;20048;-83
2022/06/22 07:24:42;;;;;;;11.82;4.47;;;;;;;;;;5086581;28;20308;-83
2022/06/22 07:27:20;;;;;;;8.13;4.25;;;;;;;;;;5065603;28;20046;-83
2022/06/22 07:29:49;;;;;;;8.77;4.15;;;;;;;;;;5065477;28;20047;-83
2022/06/22 07:32:53;;;;;;;8.65;4.32;;;;;;;;;;5063291;28;20944;-83
2022/06/22 07:35:29;;;;;;;12.63;4.43;;;;;;;;;;5086592;28;20585;-83
2022/06/22 07:37:57;;;;;;;9.40;3.63;;;;;;;;;;5065195;28;20131;-83
2022/06/22 07:40:28;;;;;;;8.13;3.83;;;;;;;;;;5066475;28;20155;-83
2022/06/22 07:42:59;;;;;;;9.15;3.80;;;;;;;;;;5067411;28;20393;-83
2022/06/22 07:45:35;;;;;;;9.77;4.40;;;;;;;;;;5066337;28;20040;-83
2022/06/22 07:48:19;;;;;;;12.82;4.90;;;;;;;;;;5101109;28;20619;-83
2022/06/22 07:50:52;;;;;;;7.72;3.85;;;;;;;;;;5063610;28;20040;-83
2022/06/22 07:53:33;;;;;;;11.23;4.45;;;;;;;;;;5067931;28;20041;-83
2022/06/22 07:56:12;;;;;;;10.10;4.07;;;;;;;;;;5099529;28;20121;-83
2022/06/22 07:59:00;;;;;;;13.73;4.13;;;;;;;;;;5083165;28;20040;-83
2022/06/22 08:01:41;;;;;;;7.07;3.78;;;;;;;;;;5065363;28;20041;-83
2022/06/22 08:04:24;;;;;;;9.65;3.50;;;;;;;;;;5083206;28;20047;-83
2022/06/22 08:07:27;;;;;;;7.30;3.78;;;;;;;;;;5083736;28;20134;-84
2022/06/22 08:10:21;;;;;;;8.60;3.53;;;;;;;;;;5066724;28;20040;-83
2022/06/22 08:13:04;;;;;;;7.55;3.53;;;;;;;;;;5064873;28;20970;-83
2022/06/22 08:15:41;;;;;;;8.35;3.85;;;;;;;;;;5071095;28;20060;-84
2022/06/22 08:18:09;;;;;;;10.75;3.65;;;;;;;;;;5064278;28;20935;-84
2022/06/22 08:21:05;;;;;;;11.02;3.50;;;;;;;;;;5063386;28;20075;-84
2022/06/22 08:23:36;;;;;;;6.93;2.92;;;;;;;;;;5087777;28;20591;-84
2022/06/22 08:26:09;;;;;;;7.07;3.55;;;;;;;;;;5072032;28;20036;-84
2022/06/22 08:28:39;;;;;;;7.30;3.70;;;;;;;;;;5071474;28;20033;-84
2022/06/22 08:31:07;;;;;;;8.60;4.38;;;;;;;;;;5072102;28;20110;-84
2022/06/22 08:33:40;;;;;;;7.65;3.22;;;;;;;;;;5072128;28;20041;-84
2022/06/22 08:36:26;;;;;;;6.85;3.63;;;;;;;;;;5074188;28;20029;-84
2022/06/22 08:39:04;;;;;;;8.00;3.42;;;;;;;;;;5090650;28;20043;-84
2022/06/22 08:42:09;;;;;;;11.70;4.40;;;;;;;;;;5073336;28;20036;-84
2022/06/22 08:45:04;;;;;;;11.40;4.45;;;;;;;;;;5106196;28;20179;-84
2022/06/22 08:47:58;;;;;;;10.70;5.13;;;;;;;;;;5068997;28;20044;-83
2022/06/22 08:50:49;;;;;;;11.45;5.28;;;;;;;;;;5071394;28;20094;-84
2022/06/22 08:53:42;;;;;;;10.95;4.38;;;;;;;;;;5088515;28;20032;-84
2022/06/22 08:56:28;;;;;;;9.00;4.53;;;;;;;;;;5070978;28;20086;-84
2022/06/22 08:59:22;;;;;;;11.98;5.13;;;;;;;;;;5071641;28;20240;-84
2022/06/22 09:01:58;;;;;;;11.35;5.22;;;;;;;;;;5068814;28;20037;-84
2022/06/22 09:04:44;;;;;;;9.52;5.00;;;;;;;;;;5065487;28;20219;-84
2022/06/22 09:07:39;;;;;;;9.75;4.85;;;;;;;;;;5069406;28;20087;-83
2022/06/22 09:10:13;;;;;;;7.00;3.95;;;;;;;;;;5071000;28;20040;-84
2022/06/22 09:13:43;;;;;;;8.23;4.00;;;;;;;;;;5065228;28;20037;-84
2022/06/22 09:16:33;;;;;;;7.68;4.40;;;;;;;;;;5069741;28;20101;-83
2022/06/22 09:19:56;;;;;;;9.38;3.97;;;;;;;;;;5067585;28;20029;-84
2022/06/22 09:22:52;;;;;;;9.60;3.90;;;;;;;;;;5072052;28;20033;-85
2022/06/22 09:25:54;;;;;;;6.25;3.38;;;;;;;;;;5073850;28;20101;-84
2022/06/22 09:28:45;;;;;;;9.00;3.30;;;;;;;;;;5034568;28;20105;-84
2022/06/22 09:31:31;;;;;;;6.00;3.30;;;;;;;;;;5011717;28;20073;-84
2022/06/22 09:34:18;;;;;;;9.35;3.42;;;;;;;;;;5035111;28;20478;-84
2022/06/22 09:37:07;;;;;;;7.90;3.63;;;;;;;;;;5034786;28;20053;-84
2022/06/22 09:39:57;;;;;;;7.60;3.42;;;;;;;;;;5032088;28;20041;-85
2022/06/22 09:42:28;;;;;;;6.32;3.05;;;;;;;;;;5026224;28;20055;-84
2022/06/22 09:44:58;;;;;;;6.72;3.47;;;;;;;;;;5028410;28;20063;-84
2022/06/22 09:47:46;;;;;;;10.40;3.58;;;;;;;;;;5025068;28;20455;-84
2022/06/22 09:50:44;;;;;;;11.23;3.88;;;;;;;;;;5027847;28;20081;-84
2022/06/22 09:53:31;;;;;;;7.28;3.30;;;;;;;;;;5025420;28;20639;-84
2022/06/22 09:56:23;;;;;;;7.63;3.53;;;;;;;;;;5024618;28;20046;-84
2022/06/22 09:59:15;;;;;;;5.68;3.00;;;;;;;;;;5026814;28;20068;-84
2022/06/22 10:02:08;;;;;;;7.95;3.70;;;;;;;;;;5033826;28;20063;-84
2022/06/22 10:04:57;;;;;;;7.00;2.90;;;;;;;;;;5069400;28;20374;-84
2022/06/22 10:07:47;;;;;;;7.00;3.33;;;;;;;;;;5065017;28;20040;-84
2022/06/22 10:10:21;;;;;;;8.00;3.35;;;;;;;;;;5066067;28;20055;-85
2022/06/22 10:13:39;;;;;;;6.25;3.30;;;;;;;;;;5080989;28;20386;-84
2022/06/22 10:16:41;;;;;;;5.30;3.22;;;;;;;;;;5065581;28;20155;-84
2022/06/22 10:19:21;;;;;;;6.82;2.85;;;;;;;;;;5068545;28;20083;-84
2022/06/22 10:21:58;;;;;;;8.00;3.85;;;;;;;;;;5066882;28;20414;-84
2022/06/22 10:24:38;;;;;;;6.07;3.10;;;;;;;;;;5065771;28;20036;-84
2022/06/22 10:27:23;;;;;;;6.60;3.10;;;;;;;;;;5064547;28;20053;-84
2022/06/22 10:30:01;;;;;;;6.88;2.85;;;;;;;;;;5065549;28;20419;-84
2022/06/22 10:32:48;;;;;;;7.10;3.05;;;;;;;;;;5064485;28;20044;-84
2022/06/22 10:35:24;;;;;;;7.03;2.67;;;;;;;;;;5065500;28;20028;-84
2022/06/22 10:38:06;;;;;;;7.03;2.70;;;;;;;;;;5063582;28;20071;-84
2022/06/22 10:47:00;;;;;;;4.90;2.72;;;;;;;;;;5062934;28;19931;-84
2022/06/22 10:49:50;;;;;;;6.82;3.03;;;;;;;;;;5065388;28;20058;-85
2022/06/22 10:52:33;;;;;;;7.25;3.00;;;;;;;;;;5059358;28;20048;-84
2022/06/22 10:55:16;;;;;;;10.13;3.22;;;;;;;;;;5067203;28;20520;-84
2022/06/22 10:57:49;;;;;;;7.82;2.95;;;;;;;;;;5063601;28;20569;-84
2022/06/22 11:01:02;;;;;;;6.40;2.70;;;;;;;;;;5066427;28;20044;-83
2022/06/22 11:04:27;;;;;;;7.32;2.72;;;;;;;;;;5021180;28;20102;-83
2022/06/22 11:07:28;;;;;;;6.97;2.60;;;;;;;;;;5023942;28;20085;-84
2022/06/22 11:09:58;;;;;;;6.18;2.70;;;;;;;;;;5026226;28;20049;-84
2022/06/22 11:13:02;;;;;;;4.68;2.45;;;;;;;;;;5024343;28;20534;-84
2022/06/22 11:15:55;;;;;;;7.40;2.75;;;;;;;;;;5019630;28;20107;-83
2022/06/22 11:18:43;;;;;;;5.47;2.75;;;;;;;;;;5022127;28;20108;-84
2022/06/22 11:21:47;;;;;;;5.50;2.42;;;;;;;;;;5020459;28;20308;-84
2022/06/22 11:24:42;;;;;;;5.85;2.50;;;;;;;;;;5009237;28;20147;-84
2022/06/22 11:30:56;;;;;;;7.35;2.17;;;;;;;;;;5028691;28;20050;-84
2022/06/22 11:33:41;;;;;;;4.60;2.20;;;;;;;;;;5024837;28;20123;-84
2022/06/22 11:36:19;;;;;;;4.60;2.08;;;;;;;;;;5021918;28;20136;-84
2022/06/22 11:38:54;;;;;;;3.92;2.10;;;;;;;;;;5019924;28;20049;-84
2022/06/22 11:41:45;;;;;;;5.40;2.20;;;;;;;;;;5061850;28;20060;-84
2022/06/22 11:44:36;;;;;;;6.03;2.08;;;;;;;;;;5058189;28;20047;-84
2022/06/22 11:47:27;;;;;;;5.00;2.10;;;;;;;;;;5062513;28;20505;-85
2022/06/22 11:50:30;;;;;;;5.53;2.40;;;;;;;;;;5059730;28;20037;-85
2022/06/22 11:53:36;;;;;;;5.18;2.00;;;;;;;;;;5059137;28;20109;-84
2022/06/22 11:56:26;;;;;;;4.93;1.70;;;;;;;;;;5058927;28;20076;-85
2022/06/22 11:59:10;;;;;;;8.48;2.03;;;;;;;;;;5052518;28;20064;-85
2022/06/22 12:02:29;;;;;;;4.97;2.08;;;;;;;;;;5059864;28;20039;-84
2022/06/22 12:05:19;;;;;;;6.03;2.65;;;;;;;;;;5092454;28;20793;-85
2022/06/22 12:08:07;;;;;;;6.28;2.15;;;;;;;;;;5064135;28;20049;-84
2022/06/22 12:10:50;;;;;;;5.60;2.47;;;;;;;;;;5061198;28;20127;-84
2022/06/22 12:13:29;;;;;;;6.00;2.20;;;;;;;;;;5062469;28;20032;-85
2022/06/22 12:16:24;;;;;;;5.20;2.25;;;;;;;;;;5076133;28;20032;-84
2022/06/22 12:19:31;;;;;;;3.88;1.90;;;;;;;;;;4998123;28;20059;-83
2022/06/22 12:23:01;;;;;;;6.30;2.70;;;;;;;;;;5012889;28;20037;-83
2022/06/22 12:25:51;;;;;;;7.28;2.35;;;;;;;;;;4985945;28;20046;-83
2022/06/22 12:28:43;;;;;;;4.90;2.10;;;;;;;;;;5013175;28;20127;-83
2022/06/22 12:31:09;;;;;;;6.22;2.60;;;;;;;;;;5015413;28;20045;-83
2022/06/22 12:33:56;;;;;;;6.65;2.55;;;;;;;;;;5015126;28;20041;-83
2022/06/22 12:36:49;;;;;;;6.88;2.25;;;;;;;;;;5014765;28;20096;-83
2022/06/22 12:39:56;;;;;;;4.88;2.50;;;;;;;;;;5010780;28;20468;-83
2022/06/22 12:42:52;;;;;;;7.28;2.45;;;;;;;;;;5002405;28;20053;-83
2022/06/22 12:45:29;;;;;;;4.53;2.03;;;;;;;;;;5004192;28;20513;-84
2022/06/22 12:48:30;;;;;;;5.57;2.50;;;;;;;;;;5016530;28;20497;-85
2022/06/22 12:51:17;;;;;;;6.30;2.38;;;;;;;;;;4999358;28;20077;-85
2022/06/22 12:53:53;;;;;;;5.93;2.20;;;;;;;;;;5015708;28;20077;-84
2022/06/22 12:56:35;;;;;;;4.82;1.98;;;;;;;;;;5044498;28;20121;-85
2022/06/22 12:59:13;;;;;;;6.20;2.25;;;;;;;;;;5060976;28;20040;-85
2022/06/22 13:01:42;;;;;;;4.60;2.17;;;;;;;;;;5092715;28;20047;-85
2022/06/22 13:04:13;;;;;;;5.50;2.38;;;;;;;;;;5062066;28;20048;-85
2022/06/22 13:06:51;;;;;;;6.90;2.20;;;;;;;;;;5062733;28;20132;-85
2022/06/22 13:09:20;;;;;;;5.07;2.40;;;;;;;;;;5060950;28;20037;-85
2022/06/22 13:11:58;;;;;;;6.28;2.15;;;;;;;;;;5061651;28;20036;-86
2022/06/22 13:14:34;;;;;;;4.40;2.17;;;;;;;;;;5059071;28;20044;-85
2022/06/22 13:17:34;;;;;;;3.75;2.10;;;;;;;;;;5059962;28;20529;-85
2022/06/22 13:20:27;;;;;;;5.22;2.22;;;;;;;;;;5046170;28;20065;-85
2022/06/22 13:23:11;;;;;;;6.70;2.03;;;;;;;;;;5065431;28;20513;-86
2022/06/22 13:26:34;;;;;;;6.22;2.10;;;;;;;;;;5086689;28;20100;-87
2022/06/22 13:29:37;;;;;;;4.13;2.05;;;;;;;;;;5071835;28;20040;-86
2022/06/22 13:32:09;;;;;;;3.83;2.00;;;;;;;;;;5067627;28;20521;-86
2022/06/22 13:35:07;;;;;;;4.90;2.03;;;;;;;;;;5091290;28;20071;-83
2022/06/22 13:38:09;;;;;;;4.90;2.10;;;;;;;;;;5062098;28;20494;-83
2022/06/22 13:41:16;;;;;;;3.75;2.03;;;;;;;;;;5058931;28;20048;-82
2022/06/22 13:44:28;;;;;;;4.75;2.08;;;;;;;;;;5061910;28;20107;-82
2022/06/22 13:47:18;;;;;;;6.18;2.30;;;;;;;;;;5057815;28;20025;-82
2022/06/22 13:50:17;;;;;;;6.55;2.00;;;;;;;;;;5066631;28;20054;-83
2022/06/22 13:52:54;;;;;;;5.90;1.90;;;;;;;;;;5065782;28;20163;-83
2022/06/22 13:55:53;;;;;;;6.03;2.08;;;;;;;;;;5061204;28;20041;-83
2022/06/22 13:58:27;;;;;;;6.47;2.00;;;;;;;;;;5065463;28;20055;-84
2022/06/22 14:01:09;;;;;;;3.35;1.60;;;;;;;;;;5064209;28;20060;-84
2022/06/22 14:03:48;;;;;;;4.18;1.52;;;;;;;;;;5065044;28;20037;-87
2022/06/22 14:06:40;;;;;;;6.90;2.25;;;;;;;;;;5046081;28;20052;-87
2022/06/22 14:09:14;;;;;;;4.75;1.90;;;;;;;;;;5066668;28;20471;-86
2022/06/22 14:12:01;;;;;;;4.32;1.90;;;;;;;;;;5065698;28;20048;-86
2022/06/22 14:14:39;;;;;;;4.90;2.03;;;;;;;;;;5065454;28;20037;-86
2022/06/22 14:17:44;;;;;;;5.90;1.70;;;;;;;;;;5065221;28;20124;-86
2022/06/22 14:20:50;;;;;;;6.80;1.80;;;;;;;;;;5065659;28;20028;-86
2022/06/22 14:23:19;;;;;;;4.88;1.92;;;;;;;;;;5065297;28;20128;-86
2022/06/22 14:26:30;;;;;;;4.40;1.95;;;;;;;;;;5096337;27;20052;-86
2022/06/22 14:29:12;;;;;;;5.28;2.00;;;;;;;;;;5063260;28;20040;-86
2022/06/22 14:31:48;;;;;;;6.43;1.92;;;;;;;;;;5062836;28;20607;-86
2022/06/22 14:34:28;;;;;;;7.97;2.38;;;;;;;;;;5063786;28;20618;-83
2022/06/22 14:37:13;;;;;;;5.55;1.80;;;;;;;;;;5062430;28;20075;-83
2022/06/22 14:40:19;;;;;;;4.50;2.22;;;;;;;;;;5062154;28;20053;-83
2022/06/22 14:43:23;;;;;;;5.05;1.90;;;;;;;;;;5013880;28;20222;-83
2022/06/22 14:46:03;;;;;;;8.40;2.30;;;;;;;;;;5015596;28;20050;-86
2022/06/22 14:48:53;;;;;;;5.97;2.53;;;;;;;;;;5021661;28;20049;-87
2022/06/22 14:51:33;;;;;;;5.45;2.30;;;;;;;;;;5024408;28;20048;-87
2022/06/22 14:54:29;;;;;;;6.85;2.10;;;;;;;;;;5023905;28;20045;-86
2022/06/22 14:57:33;;;;;;;7.68;2.08;;;;;;;;;;5024506;28;20101;-86
2022/06/22 15:00:53;;;;;;;4.85;2.00;;;;;;;;;;4970013;28;20045;-86
2022/06/22 15:03:39;;;;;;;5.28;1.95;;;;;;;;;;4986645;28;20605;-86
2022/06/22 15:06:48;;;;;;;6.57;2.10;;;;;;;;;;4974521;28;20931;-86
2022/06/22 15:09:30;;;;;;;4.22;1.60;;;;;;;;;;4987173;28;20078;-86
2022/06/22 15:15:10;;;;;;;4.50;1.98;;;;;;;;;;4991577;28;20058;-85
2022/06/22 15:17:37;;;;;;;4.82;1.95;;;;;;;;;;4991939;28;20039;-86
2022/06/22 15:20:15;;;;;;;5.03;2.10;;;;;;;;;;4988866;28;20141;-86
2022/06/22 15:22:51;;;;;;;4.65;1.90;;;;;;;;;;4989892;28;20046;-86
2022/06/22 15:25:58;;;;;;;5.95;2.17;;;;;;;;;;4990170;28;20047;-87
2022/06/22 15:28:44;;;;;;;4.30;1.98;;;;;;;;;;4988312;28;20060;-86
2022/06/22 15:31:14;;;;;;;4.88;1.95;;;;;;;;;;4989004;28;20053;-86
2022/06/22 15:34:24;;;;;;;8.63;1.90;;;;;;;;;;5024743;28;20041;-86
2022/06/22 15:37:21;;;;;;;6.22;2.30;;;;;;;;;;5072287;28;20041;-86
2022/06/22 15:40:29;;;;;;;6.07;2.33;;;;;;;;;;5072716;28;20086;-86
2022/06/22 15:43:22;;;;;;;5.68;2.10;;;;;;;;;;5093033;28;20044;-86
2022/06/22 15:46:13;;;;;;;5.22;1.80;;;;;;;;;;5076222;28;20025;-86
2022/06/22 15:48:55;;;;;;;4.82;2.08;;;;;;;;;;5070930;28;20383;-86
2022/06/22 15:51:56;;;;;;;5.05;1.98;;;;;;;;;;5052502;28;20044;-87
2022/06/22 15:54:53;;;;;;;6.93;2.20;;;;;;;;;;5058489;28;20032;-89
2022/06/22 15:57:49;;;;;;;5.40;2.15;;;;;;;;;;5062356;28;20047;-89
2022/06/22 16:00:45;;;;;;;5.45;1.92;;;;;;;;;;5062482;28;20482;-89
2022/06/22 16:03:32;;;;;;;5.75;2.70;;;;;;;;;;5062773;28;20045;-89
2022/06/22 16:06:50;;;;;;;6.00;2.10;;;;;;;;;;5060938;28;20033;-89
2022/06/22 16:09:42;;;;;;;8.25;2.20;;;;;;;;;;5059247;28;20438;-89
2022/06/22 16:14:59;;;;;;;7.93;2.28;;;;;;;;;;5065833;28;20128;-88
2022/06/22 16:17:40;;;;;;;9.45;2.53;;;;;;;;;;5064796;28;20048;-88
2022/06/22 16:20:20;;;;;;;7.82;2.30;;;;;;;;;;5065088;28;20441;-88
2022/06/22 16:22:58;;;;;;;8.10;2.40;;;;;;;;;;5079266;28;20055;-88
2022/06/22 16:25:58;;;;;;;5.93;2.05;;;;;;;;;;5080914;28;20031;-88
2022/06/22 16:28:48;;;;;;;11.82;2.60;;;;;;;;;;5065009;28;20040;-88
2022/06/22 16:32:13;;;;;;;9.15;3.55;;;;;;;;;;5065657;28;20040;-88
2022/06/22 16:34:50;;;;;;;11.50;3.20;;;;;;;;;;5069597;28;20068;-88
2022/06/22 16:37:46;;;;;;;7.90;2.03;;;;;;;;;;5068320;28;20036;-88
2022/06/22 16:40:22;;;;;;;8.13;2.08;;;;;;;;;;5067427;28;20041;-88
2022/06/22 16:43:15;;;;;;;5.65;2.53;;;;;;;;;;5067327;28;20501;-88
2022/06/22 16:46:12;;;;;;;4.35;2.05;;;;;;;;;;5086226;28;20143;-88
2022/06/22 16:48:39;;;;;;;4.85;2.03;;;;;;;;;;5069388;28;20040;-88
2022/06/22 16:51:12;;;;;;;4.97;2.00;;;;;;;;;;5074097;28;20044;-86
2022/06/22 16:53:49;;;;;;;4.53;1.90;;;;;;;;;;5072978;28;20032;-86